Time;durP1;ratioP1;P1;durP2;ratioP2;P2;SDS_P1;SDS_P2;PMS_P1;PMS_P2;Temp;Humidity;BMP_temperature;BMP_pressure;BME280_temperature;BME280_humidity;BME280_pressure;Samples;Min_cycle;Max_cycle;Signal;HPM_P1;HPM_P2
2021/09/27 00:01:47;;;;;;;3.85;2.97;;;;;;;16.39;54.91;101153.31;7979338;28;20034;-67
2021/09/27 00:05:38;;;;;;;4.75;3.08;;;;;;;16.36;54.88;101148.28;7980370;28;20049;-67
2021/09/27 00:09:34;;;;;;;4.38;3.75;;;;;;;16.31;54.81;101148.66;7985915;28;20073;-67
2021/09/27 00:13:30;;;;;;;4.30;3.28;;;;;;;16.31;54.89;101148.66;7974488;28;20062;-67
2021/09/27 00:17:20;;;;;;;7.47;3.58;;;;;;;16.27;55.26;101151.69;7986998;28;20029;-67
2021/09/27 00:21:19;;;;;;;4.07;2.85;;;;;;;16.24;54.92;101155.47;7988499;28;20098;-67
2021/09/27 00:25:11;;;;;;;4.10;3.03;;;;;;;16.23;54.90;101156.44;7988289;28;20381;-67
2021/09/27 00:29:04;;;;;;;3.40;2.80;;;;;;;16.20;55.02;101156.69;7988567;28;20041;-67
2021/09/27 00:32:55;;;;;;;7.47;3.38;;;;;;;16.20;55.12;101156.69;7989878;28;20025;-67
2021/09/27 00:36:45;;;;;;;3.60;2.60;;;;;;;16.18;55.15;101148.88;7991490;28;20609;-67
2021/09/27 00:40:42;;;;;;;6.90;3.47;;;;;;;16.17;55.18;101146.34;7986095;28;20021;-67
2021/09/27 00:44:32;;;;;;;3.40;2.75;;;;;;;16.16;55.27;101157.94;7978431;28;20046;-67
2021/09/27 00:48:24;;;;;;;5.70;3.13;;;;;;;16.17;55.41;101146.34;7964980;28;20105;-67
2021/09/27 00:52:17;;;;;;;4.20;2.45;;;;;;;16.17;55.35;101149.00;7980280;28;20026;-67
2021/09/27 00:56:10;;;;;;;5.72;3.17;;;;;;;16.16;55.42;101150.78;7981960;28;20033;-66
2021/09/27 01:00:00;;;;;;;6.43;2.88;;;;;;;16.17;55.47;101143.69;7983392;28;20029;-67
2021/09/27 01:03:52;;;;;;;2.97;2.42;;;;;;;16.17;55.38;101152.47;7982557;28;20692;-67
2021/09/27 01:08:07;;;;;;;3.30;2.72;;;;;;;16.15;55.50;101143.84;7983988;28;20040;-67
2021/09/27 01:12:03;;;;;;;4.72;2.63;;;;;;;16.12;55.41;101141.41;7987048;28;20035;-68
2021/09/27 01:16:09;;;;;;;4.38;3.25;;;;;;;16.09;55.46;101139.00;7986061;28;20041;-67
2021/09/27 01:20:06;;;;;;;3.97;2.78;;;;;;;16.05;55.35;101132.28;7988202;28;20384;-67
2021/09/27 01:24:24;;;;;;;6.03;3.33;;;;;;;16.01;55.43;101130.88;7989378;28;20049;-67
2021/09/27 01:28:27;;;;;;;4.53;3.03;;;;;;;15.97;55.53;101124.16;7990849;28;20117;-67
2021/09/27 01:32:29;;;;;;;4.65;2.88;;;;;;;15.93;55.50;101128.03;7981137;28;20028;-67
2021/09/27 01:36:29;;;;;;;2.75;2.40;;;;;;;15.89;55.41;101128.41;7976786;28;20059;-67
2021/09/27 01:40:48;;;;;;;4.20;3.10;;;;;;;15.83;55.48;101121.81;7977821;28;20511;-66
2021/09/27 01:44:57;;;;;;;5.65;3.00;;;;;;;15.82;55.49;101114.03;7975394;28;20136;-67
2021/09/27 01:49:05;;;;;;;5.65;2.90;;;;;;;15.78;55.47;101115.25;7974431;28;20045;-66
2021/09/27 01:53:06;;;;;;;3.67;2.95;;;;;;;15.73;55.57;101110.34;7977076;28;20141;-67
2021/09/27 01:57:15;;;;;;;4.05;3.17;;;;;;;15.69;55.65;101108.91;7983472;28;20041;-67
2021/09/27 02:01:13;;;;;;;5.38;2.90;;;;;;;15.66;55.81;101112.63;7985668;28;20087;-67
2021/09/27 02:05:15;;;;;;;5.35;2.97;;;;;;;15.65;55.89;101110.13;7985035;28;20132;-67
2021/09/27 02:09:13;;;;;;;6.30;3.05;;;;;;;15.66;55.96;101111.81;7986300;28;20037;-66
2021/09/27 02:13:13;;;;;;;4.80;3.10;;;;;;;15.65;55.98;101108.34;7983172;28;20457;-67
2021/09/27 02:17:04;;;;;;;5.95;3.20;;;;;;;15.67;56.05;101109.03;7992296;28;20786;-67
2021/09/27 02:21:17;;;;;;;4.72;3.28;;;;;;;15.65;56.18;101105.69;7990925;28;20094;-67
2021/09/27 02:25:18;;;;;;;4.38;3.03;;;;;;;15.68;56.02;101097.47;7971566;28;20079;-66
2021/09/27 02:29:09;;;;;;;4.63;2.63;;;;;;;15.66;56.12;101088.81;7975728;28;20037;-67
2021/09/27 02:33:09;;;;;;;3.65;2.70;;;;;;;15.66;56.19;101098.59;7977427;28;20033;-67
2021/09/27 02:37:14;;;;;;;4.43;2.47;;;;;;;15.65;56.20;101094.25;7979176;28;20037;-67
2021/09/27 02:41:21;;;;;;;4.93;3.03;;;;;;;15.62;56.18;101091.88;7978181;28;20114;-67
2021/09/27 02:45:12;;;;;;;4.60;2.72;;;;;;;15.55;56.17;101091.53;7984484;28;20033;-67
2021/09/27 02:49:13;;;;;;;3.90;2.78;;;;;;;15.57;56.14;101089.59;7981706;28;20032;-67
2021/09/27 02:53:04;;;;;;;4.82;2.88;;;;;;;15.54;56.12;101091.66;7983141;28;20037;-67
2021/09/27 02:57:25;;;;;;;5.22;3.10;;;;;;;15.46;56.17;101092.28;7984543;28;20034;-67
2021/09/27 03:01:33;;;;;;;4.30;3.05;;;;;;;15.46;56.01;101091.44;7979182;28;20494;-67
2021/09/27 03:05:59;;;;;;;5.63;2.90;;;;;;;15.36;56.06;101083.44;7992685;28;20032;-67
2021/09/27 03:10:18;;;;;;;3.63;2.30;;;;;;;15.32;56.03;101068.78;7979714;28;20471;-67
2021/09/27 03:14:26;;;;;;;7.03;3.53;;;;;;;15.31;56.04;101066.25;7970184;28;20025;-67
2021/09/27 03:18:34;;;;;;;4.70;2.88;;;;;;;15.26;56.16;101062.16;7981819;28;20501;-67
2021/09/27 03:22:49;;;;;;;4.28;2.72;;;;;;;15.23;56.20;101065.06;7985513;28;20040;-67
2021/09/27 03:26:47;;;;;;;4.95;2.88;;;;;;;15.19;56.40;101065.44;7984728;28;20539;-67
2021/09/27 03:30:56;;;;;;;3.45;2.67;;;;;;;15.16;56.40;101060.41;7987837;28;20044;-67
2021/09/27 03:35:06;;;;;;;3.35;3.05;;;;;;;15.16;56.56;101055.09;7987295;28;20064;-67
2021/09/27 03:39:06;;;;;;;4.80;3.20;;;;;;;15.14;56.54;101060.50;7990856;28;20035;-67
2021/09/27 03:43:50;;;;;;;4.35;2.72;;;;;;;15.12;56.65;101051.88;7986467;28;20038;-67
2021/09/27 03:47:44;;;;;;;4.70;3.00;;;;;;;15.13;56.69;101064.13;7986169;28;20405;-67
2021/09/27 03:51:49;;;;;;;4.95;2.80;;;;;;;15.13;56.67;101068.56;7995171;28;20040;-67
2021/09/27 03:55:50;;;;;;;3.35;2.47;;;;;;;15.05;56.63;101057.78;7978093;28;20043;-67
2021/09/27 03:59:57;;;;;;;3.20;2.63;;;;;;;15.11;56.74;101073.16;7982298;28;20073;-66
2021/09/27 04:04:13;;;;;;;8.55;3.10;;;;;;;15.07;56.78;101074.38;7983602;28;20037;-67
2021/09/27 04:08:08;;;;;;;5.90;2.88;;;;;;;15.05;56.58;101077.13;7984947;28;20038;-67
2021/09/27 04:12:05;;;;;;;4.93;2.83;;;;;;;15.04;56.43;101079.94;7985108;28;20064;-67
2021/09/27 04:16:25;;;;;;;4.93;2.95;;;;;;;15.00;56.63;101073.19;7987439;28;20110;-67
2021/09/27 04:20:34;;;;;;;4.20;2.58;;;;;;;14.96;56.56;101072.59;7989387;28;20033;-67
2021/09/27 04:24:49;;;;;;;4.70;3.08;;;;;;;14.96;56.86;101072.59;7990480;28;20030;-67
2021/09/27 04:29:02;;;;;;;5.15;3.42;;;;;;;14.94;56.98;101079.81;7980537;28;20078;-67
2021/09/27 04:32:59;;;;;;;6.38;2.55;;;;;;;14.97;57.01;101066.34;7990511;28;20041;-66
2021/09/27 04:36:55;;;;;;;5.57;2.95;;;;;;;15.00;57.06;101073.19;7991683;28;20044;-67
2021/09/27 04:41:04;;;;;;;5.28;3.75;;;;;;;15.00;57.14;101074.00;7992227;28;20129;-67
2021/09/27 04:45:00;;;;;;;7.78;3.78;;;;;;;15.05;57.30;101074.50;7977376;28;20393;-67
2021/09/27 04:48:58;;;;;;;5.50;3.33;;;;;;;15.09;57.27;101075.06;7981404;28;20075;-67
2021/09/27 04:52:49;;;;;;;;;;;;;;;14.99;57.30;101071.50;7982688;28;20489;-67
2021/09/27 04:56:42;;;;;;;4.70;2.78;;;;;;;15.09;57.30;101075.91;7981730;28;19916;-67
2021/09/27 05:00:52;;;;;;;4.13;3.25;;;;;;;15.12;57.29;101074.84;7980675;28;20505;-66
2021/09/27 05:05:08;;;;;;;4.72;3.70;;;;;;;15.13;57.47;101071.22;7983197;28;20123;-66
2021/09/27 05:09:10;;;;;;;5.50;2.95;;;;;;;15.14;57.54;101068.44;7985935;28;20488;-66
2021/09/27 05:13:22;;;;;;;5.28;3.92;;;;;;;15.16;57.51;101066.53;7981994;28;20033;-66
2021/09/27 05:17:18;;;;;;;7.53;3.38;;;;;;;15.19;57.62;101065.44;7989059;28;20451;-66
2021/09/27 05:21:22;;;;;;;5.68;3.65;;;;;;;15.19;57.42;101065.44;7990920;28;20116;-66
2021/09/27 05:25:47;;;;;;;5.30;3.30;;;;;;;15.17;57.60;101054.13;7990028;28;20049;-66
2021/09/27 05:29:59;;;;;;;5.18;3.63;;;;;;;15.17;57.64;101060.25;7991441;28;20473;-66
2021/09/27 05:34:06;;;;;;;7.25;3.83;;;;;;;15.18;57.75;101048.72;7978839;28;20447;-66
2021/09/27 05:38:14;;;;;;;5.78;3.95;;;;;;;15.18;57.71;101046.06;7979092;28;20703;-67
2021/09/27 05:42:32;;;;;;;8.85;4.30;;;;;;;15.18;57.90;101047.88;7981064;28;20064;-67
2021/09/27 05:46:35;;;;;;;4.82;3.42;;;;;;;15.20;57.72;101051.25;7976631;28;20034;-66
2021/09/27 05:50:43;;;;;;;7.07;4.53;;;;;;;15.22;57.76;101047.47;7978674;28;20070;-67
2021/09/27 05:54:52;;;;;;;5.40;3.95;;;;;;;15.22;57.80;101049.28;7972693;28;20042;-66
2021/09/27 05:59:18;;;;;;;9.55;4.80;;;;;;;15.20;57.88;101044.16;7975671;28;20105;-66
2021/09/27 06:03:52;;;;;;;5.65;4.13;;;;;;;15.20;57.83;101038.84;7975574;28;20412;-67
2021/09/27 06:08:02;;;;;;;5.63;4.18;;;;;;;15.21;57.91;101043.16;7973899;28;20029;-66
2021/09/27 06:12:22;;;;;;;6.22;4.38;;;;;;;15.19;58.05;101046.91;7993570;28;20047;-67
2021/09/27 06:16:22;;;;;;;11.23;5.10;;;;;;;15.26;57.92;101048.06;7989036;28;20112;-66
2021/09/27 06:20:19;;;;;;;6.40;3.95;;;;;;;15.29;57.94;101045.22;7981258;28;20060;-66
2021/09/27 06:24:37;;;;;;;6.25;4.50;;;;;;;15.32;57.98;101050.25;7956567;28;20033;-66
2021/09/27 06:28:52;;;;;;;11.15;4.63;;;;;;;15.38;58.10;101035.66;7964483;28;20541;-66
2021/09/27 06:33:15;;;;;;;5.00;3.95;;;;;;;15.42;58.05;101048.50;7976941;28;20041;-67
2021/09/27 06:37:06;;;;;;;7.13;4.18;;;;;;;15.51;58.13;101046.91;7952143;28;20051;-66
2021/09/27 06:40:57;;;;;;;8.70;4.38;;;;;;;15.59;58.00;101047.94;7967405;28;20025;-66
2021/09/27 06:44:48;;;;;;;7.18;4.82;;;;;;;15.66;58.02;101043.78;7979286;28;20033;-66
2021/09/27 06:48:39;;;;;;;5.97;4.47;;;;;;;15.75;58.21;101042.16;7971925;28;20586;-66
2021/09/27 06:52:29;;;;;;;5.10;4.03;;;;;;;15.84;58.25;101051.97;7965610;28;20047;-66
2021/09/27 06:56:20;;;;;;;8.13;4.30;;;;;;;15.90;58.20;101038.22;7968293;28;20025;-66
2021/09/27 07:00:13;;;;;;;5.93;3.90;;;;;;;15.94;58.20;101038.81;7960783;28;20386;-66
2021/09/27 07:04:04;;;;;;;6.57;3.35;;;;;;;15.98;58.24;101024.31;7966461;28;20037;-67
2021/09/27 07:07:56;;;;;;;6.90;4.93;;;;;;;16.01;58.13;101024.03;7987335;28;20029;-66
2021/09/27 07:11:46;;;;;;;5.75;4.15;;;;;;;16.06;58.22;101027.13;7958266;28;20041;-66
2021/09/27 07:15:38;;;;;;;6.68;4.38;;;;;;;16.14;58.18;101035.28;7966039;28;20037;-66
2021/09/27 07:19:28;;;;;;;8.57;3.95;;;;;;;16.24;58.33;101025.59;7968205;28;20445;-66
2021/09/27 07:23:19;;;;;;;7.00;4.40;;;;;;;16.41;58.30;101032.88;7964432;28;20029;-66
2021/09/27 07:27:09;;;;;;;6.97;4.53;;;;;;;16.48;58.38;101018.13;7962521;28;20109;-65
2021/09/27 07:31:00;;;;;;;6.10;3.75;;;;;;;16.52;58.31;101014.22;7969931;28;20041;-66
2021/09/27 07:34:50;;;;;;;11.05;3.90;;;;;;;16.61;58.27;101010.75;7976806;28;20099;-67
2021/09/27 07:38:41;;;;;;;6.57;3.92;;;;;;;16.71;58.35;101001.94;7968136;28;20065;-67
2021/09/27 07:42:32;;;;;;;6.80;3.72;;;;;;;16.81;58.17;101003.66;7982623;28;20041;-67
2021/09/27 07:46:23;;;;;;;6.05;4.07;;;;;;;16.98;58.28;101008.31;7987196;28;20033;-67
2021/09/27 07:50:14;;;;;;;5.70;4.57;;;;;;;17.11;58.41;101002.72;7963659;28;20457;-67
2021/09/27 07:54:06;;;;;;;6.55;4.90;;;;;;;17.22;58.01;100999.91;7964764;28;20115;-67
2021/09/27 07:57:56;;;;;;;8.48;4.32;;;;;;;17.30;58.08;101000.03;7968992;28;20029;-67
2021/09/27 08:01:47;;;;;;;6.20;4.32;;;;;;;17.34;58.14;100996.13;7965323;28;20037;-67
2021/09/27 08:05:38;;;;;;;5.65;3.33;;;;;;;17.41;58.02;100999.03;7974136;28;20041;-67
2021/09/27 08:09:29;;;;;;;8.27;4.43;;;;;;;17.52;57.90;100989.13;7976540;28;20042;-67
2021/09/27 08:13:19;;;;;;;5.97;4.25;;;;;;;17.70;57.84;100997.19;7976693;28;20026;-67
2021/09/27 08:17:10;;;;;;;7.25;4.13;;;;;;;17.98;57.83;100998.09;7972110;28;20116;-67
2021/09/27 08:21:06;;;;;;;5.47;3.92;;;;;;;18.33;58.18;100990.22;7965323;28;20393;-67
2021/09/27 08:24:57;;;;;;;7.03;4.22;;;;;;;18.67;58.02;100987.78;7965910;28;20478;-68
2021/09/27 08:28:48;;;;;;;8.40;4.43;;;;;;;19.02;58.29;100991.44;7972706;28;20044;-67
2021/09/27 08:32:38;;;;;;;5.32;3.70;;;;;;;19.35;58.12;100969.41;7973456;28;20065;-67
2021/09/27 08:36:29;;;;;;;3.53;3.22;;;;;;;19.58;57.75;100977.75;7973759;28;20044;-68
2021/09/27 08:40:32;;;;;;;8.45;3.42;;;;;;;19.64;57.28;100977.94;7973516;28;20032;-67
2021/09/27 08:44:45;;;;;;;5.63;3.53;;;;;;;19.69;57.06;100982.78;7974878;28;20029;-68
2021/09/27 08:48:41;;;;;;;4.35;3.05;;;;;;;19.67;57.07;100985.63;7973474;28;20033;-67
2021/09/27 08:52:35;;;;;;;3.45;3.03;;;;;;;19.68;56.64;100981.94;7965368;28;20717;-67
2021/09/27 08:56:40;;;;;;;3.78;2.60;;;;;;;19.60;56.42;100973.91;7970823;28;20045;-67
2021/09/27 09:00:31;;;;;;;3.72;2.55;;;;;;;19.55;56.03;100978.91;7966900;28;20106;-67
2021/09/27 09:04:41;;;;;;;3.90;2.50;;;;;;;19.46;56.17;100973.66;7972680;28;20457;-67
2021/09/27 09:08:52;;;;;;;5.07;2.25;;;;;;;19.38;55.69;100979.78;7972101;28;20095;-67
2021/09/27 09:12:47;;;;;;;5.00;2.65;;;;;;;19.34;55.93;100973.94;7970315;28;20038;-67
2021/09/27 09:16:40;;;;;;;2.97;2.28;;;;;;;19.34;55.78;100973.09;7970020;28;20685;-67
2021/09/27 09:20:52;;;;;;;3.65;2.58;;;;;;;19.36;56.09;100971.09;7968635;28;20036;-67
2021/09/27 09:24:43;;;;;;;4.28;2.47;;;;;;;19.41;56.14;100975.94;7963815;28;20037;-67
2021/09/27 09:28:34;;;;;;;3.25;2.25;;;;;;;19.42;55.89;100982.97;7973240;28;20048;-67
2021/09/27 09:32:31;;;;;;;4.50;2.30;;;;;;;19.38;55.80;100970.94;7974131;28;20037;-67
2021/09/27 09:36:31;;;;;;;4.55;2.08;;;;;;;19.30;55.32;100975.25;7973587;28;20441;-67
2021/09/27 09:40:28;;;;;;;3.22;2.03;;;;;;;19.24;55.47;100973.19;7968966;28;20030;-67
2021/09/27 09:44:41;;;;;;;3.22;1.75;;;;;;;19.14;55.46;100984.88;7966842;28;20394;-67
2021/09/27 09:48:33;;;;;;;3.80;2.40;;;;;;;19.07;55.72;100974.00;7967108;28;20144;-67
2021/09/27 09:52:39;;;;;;;3.60;2.15;;;;;;;19.00;55.32;100986.25;7961853;28;20032;-67
2021/09/27 09:56:33;;;;;;;2.58;2.13;;;;;;;18.97;55.28;100977.75;7968924;28;20114;-67
2021/09/27 10:00:51;;;;;;;3.97;2.20;;;;;;;18.90;55.41;100986.34;7966352;28;20033;-67
2021/09/27 10:04:48;;;;;;;3.35;1.80;;;;;;;18.87;55.56;100978.66;7971123;28;20033;-67
2021/09/27 10:08:53;;;;;;;4.93;2.53;;;;;;;18.83;55.66;100971.97;7973161;28;20041;-67
2021/09/27 10:12:51;;;;;;;5.85;2.20;;;;;;;18.90;55.79;100974.84;7970168;28;20146;-67
2021/09/27 10:16:54;;;;;;;4.85;1.88;;;;;;;18.93;55.36;100966.59;7968698;28;20049;-67
2021/09/27 10:20:59;;;;;;;4.05;2.00;;;;;;;18.97;55.42;100970.59;7961784;28;20032;-67
2021/09/27 10:24:57;;;;;;;2.42;1.70;;;;;;;19.03;55.47;100967.31;7966962;28;20099;-67
2021/09/27 10:28:51;;;;;;;3.47;1.85;;;;;;;19.09;55.73;100964.06;7966767;28;20049;-67
2021/09/27 10:32:49;;;;;;;2.88;1.42;;;;;;;19.16;55.23;100958.97;7967565;28;20513;-67
2021/09/27 10:36:51;;;;;;;2.92;1.50;;;;;;;19.25;55.37;100960.69;7964588;28;20049;-67
2021/09/27 10:40:46;;;;;;;1.67;1.50;;;;;;;19.32;55.66;100957.25;7966309;28;20034;-66
2021/09/27 10:44:47;;;;;;;1.45;1.20;;;;;;;19.40;55.32;100955.63;7970660;28;20037;-66
2021/09/27 10:48:42;;;;;;;1.92;1.00;;;;;;;19.46;55.44;100955.84;7969233;28;20066;-66
2021/09/27 10:52:38;;;;;;;1.77;1.10;;;;;;;19.51;54.76;100958.06;7961649;28;20042;-67
2021/09/27 10:56:39;;;;;;;1.77;1.27;;;;;;;19.52;54.74;100959.69;7969683;28;20490;-66
2021/09/27 11:00:39;;;;;;;6.45;1.42;;;;;;;19.53;54.82;100953.38;7968988;28;20034;-65
2021/09/27 11:04:43;;;;;;;1.55;1.27;;;;;;;19.54;54.72;100955.06;7971147;28;20045;-66
2021/09/27 11:08:50;;;;;;;3.08;1.25;;;;;;;19.57;54.30;100957.41;7968863;28;20068;-66
2021/09/27 11:12:45;;;;;;;2.70;1.30;;;;;;;19.55;54.48;100965.56;7969007;28;20037;-66
2021/09/27 11:16:40;;;;;;;1.77;1.25;;;;;;;19.56;54.16;100951.25;7971509;28;20045;-66
2021/09/27 11:21:03;;;;;;;4.22;1.05;;;;;;;19.61;54.33;100948.94;7963585;28;20037;-66
2021/09/27 11:25:27;;;;;;;1.52;1.08;;;;;;;19.67;54.01;100945.66;7974944;28;20120;-66
2021/09/27 11:29:23;;;;;;;2.13;0.95;;;;;;;19.73;54.14;100938.84;7971569;28;20072;-65
2021/09/27 11:33:32;;;;;;;1.20;0.90;;;;;;;19.80;54.13;100931.91;7974306;28;20371;-66
2021/09/27 11:37:32;;;;;;;5.60;1.25;;;;;;;19.91;53.74;100928.97;7973113;28;20586;-65
2021/09/27 11:41:30;;;;;;;2.20;1.02;;;;;;;20.00;54.11;100930.69;7975768;28;20029;-66
2021/09/27 11:45:34;;;;;;;2.47;1.40;;;;;;;20.09;53.92;100935.06;7981225;28;20521;-66
2021/09/27 11:49:46;;;;;;;1.67;1.10;;;;;;;20.14;53.90;100935.38;7975066;28;20750;-67
2021/09/27 11:53:37;;;;;;;2.15;1.00;;;;;;;20.16;53.95;100933.41;7972995;28;20127;-67
2021/09/27 11:57:30;;;;;;;7.50;1.50;;;;;;;20.18;53.23;100938.56;7976413;28;20041;-67
2021/09/27 12:01:57;;;;;;;2.92;1.50;;;;;;;20.14;53.31;100934.53;7974690;28;20379;-66
2021/09/27 12:06:08;;;;;;;4.13;1.23;;;;;;;20.16;53.00;100944.06;7970240;28;20057;-67
2021/09/27 12:10:07;;;;;;;5.63;1.00;;;;;;;20.18;52.94;100942.06;7971942;28;20072;-67
2021/09/27 12:14:03;;;;;;;2.05;1.23;;;;;;;20.24;53.09;100935.25;7976388;28;20071;-65
2021/09/27 12:17:54;;;;;;;1.40;1.00;;;;;;;20.30;53.04;100923.94;7974007;28;20522;-65
2021/09/27 12:21:48;;;;;;;5.50;1.02;;;;;;;20.37;52.82;100914.28;7966288;28;20048;-66
2021/09/27 12:25:42;;;;;;;3.00;1.13;;;;;;;20.42;52.42;100908.44;7968789;28;20576;-67
2021/09/27 12:29:35;;;;;;;1.25;1.00;;;;;;;20.46;52.48;100912.47;7975152;28;20125;-66
2021/09/27 12:33:26;;;;;;;7.03;0.90;;;;;;;20.49;52.47;100901.44;7973920;28;20033;-66
2021/09/27 12:37:19;;;;;;;3.25;0.98;;;;;;;20.51;52.33;100892.28;7975279;28;20034;-66
2021/09/27 12:41:10;;;;;;;1.10;1.00;;;;;;;20.55;52.08;100898.97;7975758;28;20124;-66
2021/09/27 12:45:29;;;;;;;1.88;0.90;;;;;;;20.52;52.21;100896.63;7968636;28;20033;-67
2021/09/27 12:49:29;;;;;;;1.40;1.10;;;;;;;20.55;52.17;100898.16;7966484;28;20039;-68
2021/09/27 12:53:33;;;;;;;3.60;1.02;;;;;;;20.52;51.84;100893.94;7955176;28;20034;-67
2021/09/27 12:57:55;;;;;;;3.17;1.08;;;;;;;20.50;51.91;100887.94;7969043;28;20045;-67
2021/09/27 13:01:50;;;;;;;2.30;1.15;;;;;;;20.47;51.77;100887.44;7968153;28;20056;-67
2021/09/27 13:06:02;;;;;;;1.42;1.10;;;;;;;20.46;51.91;100891.13;7974077;28;20037;-67
2021/09/27 13:10:09;;;;;;;2.42;1.20;;;;;;;20.43;51.74;100894.94;7968412;28;20033;-67
2021/09/27 13:14:19;;;;;;;1.80;1.00;;;;;;;20.38;51.71;100910.63;7971985;28;20051;-67
2021/09/27 13:18:33;;;;;;;2.53;1.17;;;;;;;20.36;51.51;100909.94;7966524;28;20033;-66
2021/09/27 13:22:25;;;;;;;2.67;1.20;;;;;;;20.38;51.80;100920.44;7962173;28;20057;-66
2021/09/27 13:26:49;;;;;;;1.13;0.90;;;;;;;20.35;51.73;100916.25;7970750;28;20037;-66
2021/09/27 13:30:40;;;;;;;1.00;0.90;;;;;;;20.35;51.71;100929.59;7963412;28;20069;-66
2021/09/27 13:34:47;;;;;;;10.88;1.48;;;;;;;20.30;51.81;100929.28;7972930;28;20486;-66
2021/09/27 13:38:52;;;;;;;2.35;1.27;;;;;;;20.26;51.74;100931.41;7972569;28;20049;-66
2021/09/27 13:42:47;;;;;;;1.70;1.10;;;;;;;20.26;51.56;100938.59;7967138;28;20035;-66
2021/09/27 13:46:37;;;;;;;1.67;1.13;;;;;;;20.24;51.61;100936.09;7972574;28;20101;-67
2021/09/27 13:50:28;;;;;;;9.02;1.00;;;;;;;20.15;51.51;100937.06;7967650;28;20038;-67
2021/09/27 13:54:19;;;;;;;1.52;0.98;;;;;;;20.20;51.79;100947.25;7966763;28;20480;-67
2021/09/27 13:58:10;;;;;;;1.33;1.00;;;;;;;20.22;51.64;100955.91;7968221;28;20565;-67
2021/09/27 14:02:22;;;;;;;8.30;1.30;;;;;;;20.19;52.15;100967.75;7969554;28;20041;-67
2021/09/27 14:06:14;;;;;;;2.60;1.40;;;;;;;20.20;52.16;100971.25;7968248;28;20083;-67
2021/09/27 14:10:06;;;;;;;4.28;0.93;;;;;;;20.17;51.84;100976.91;7970322;28;20068;-67
2021/09/27 14:13:57;;;;;;;2.72;0.85;;;;;;;20.14;52.11;100983.38;7970952;28;20030;-67
2021/09/27 14:17:48;;;;;;;1.27;0.80;;;;;;;20.10;51.85;100994.53;7969886;28;20021;-67
2021/09/27 14:21:38;;;;;;;1.20;0.98;;;;;;;20.01;51.82;100982.19;7967772;28;20044;-67
2021/09/27 14:25:29;;;;;;;3.10;1.00;;;;;;;20.02;52.15;100984.66;7970595;28;20045;-67
2021/09/27 14:29:20;;;;;;;2.03;1.08;;;;;;;19.96;51.92;101005.81;7967476;28;20494;-68
2021/09/27 14:33:11;;;;;;;1.30;1.02;;;;;;;19.91;52.04;101011.63;7963919;28;20038;-67
2021/09/27 14:37:02;;;;;;;1.67;1.10;;;;;;;19.83;51.64;101014.22;7968553;28;20022;-68
2021/09/27 14:40:53;;;;;;;6.07;1.08;;;;;;;19.74;51.81;101002.66;7969856;28;20029;-67
2021/09/27 14:44:44;;;;;;;1.73;0.90;;;;;;;19.58;51.91;100988.41;7970839;28;20108;-67
2021/09/27 14:48:34;;;;;;;0.95;0.80;;;;;;;19.55;52.04;100997.56;7969723;28;20402;-67
2021/09/27 14:52:25;;;;;;;0.80;0.77;;;;;;;19.48;52.09;100982.31;7964502;28;20083;-67
2021/09/27 14:56:16;;;;;;;2.92;1.27;;;;;;;19.41;51.98;100978.63;7960068;28;20036;-68
2021/09/27 15:00:10;;;;;;;1.92;0.95;;;;;;;19.35;52.14;100980.06;7972283;28;20100;-67
2021/09/27 15:04:00;;;;;;;1.08;0.75;;;;;;;19.28;52.37;100973.69;7971670;28;20037;-67
2021/09/27 15:07:52;;;;;;;4.63;0.90;;;;;;;19.21;52.40;100975.31;7972550;28;20040;-67
2021/09/27 15:11:43;;;;;;;2.55;1.23;;;;;;;19.13;52.49;100986.72;7975957;28;20505;-66
2021/09/27 15:15:33;;;;;;;1.83;1.00;;;;;;;19.08;52.84;100986.34;7977444;28;20037;-67
2021/09/27 15:19:25;;;;;;;2.33;1.67;;;;;;;18.98;52.75;100982.91;7970778;28;20022;-67
2021/09/27 15:23:17;;;;;;;2.15;1.15;;;;;;;18.97;52.64;100996.38;7974086;28;20045;-67
2021/09/27 15:27:08;;;;;;;1.50;1.05;;;;;;;18.89;53.17;101002.47;7964481;28;20044;-67
2021/09/27 15:30:59;;;;;;;1.38;1.00;;;;;;;18.83;52.86;100997.75;7969986;28;20046;-67
2021/09/27 15:34:50;;;;;;;3.80;1.40;;;;;;;18.74;53.37;101002.16;7973093;28;20037;-67
2021/09/27 15:38:44;;;;;;;2.22;1.40;;;;;;;18.69;53.23;101009.75;7968883;28;20454;-67
2021/09/27 15:42:35;;;;;;;3.35;1.40;;;;;;;18.61;53.79;100999.00;7974423;28;20041;-67
2021/09/27 15:46:25;;;;;;;3.92;1.60;;;;;;;18.56;53.57;101011.13;7975442;28;20033;-67
2021/09/27 15:50:16;;;;;;;2.33;1.67;;;;;;;18.50;53.98;101020.53;7974032;28;20033;-67
2021/09/27 15:54:07;;;;;;;2.63;1.40;;;;;;;18.45;54.12;101036.91;7974774;28;20090;-68
2021/09/27 15:57:57;;;;;;;2.60;1.50;;;;;;;18.41;53.97;101032.84;7967465;28;20426;-67
2021/09/27 16:01:49;;;;;;;4.22;1.13;;;;;;;18.37;54.22;101031.47;7972488;28;20530;-67
2021/09/27 16:05:41;;;;;;;3.00;1.80;;;;;;;18.31;54.14;101041.88;7975577;28;20029;-67
2021/09/27 16:09:33;;;;;;;1.40;1.27;;;;;;;18.25;54.17;101131.03;7972125;28;20502;-67
2021/09/27 16:13:24;;;;;;;1.17;0.98;;;;;;;18.16;54.09;101144.34;7976377;28;20041;-67
2021/09/27 16:17:14;;;;;;;1.08;0.80;;;;;;;18.00;52.69;101143.13;7975233;28;20655;-67
2021/09/27 16:21:05;;;;;;;0.90;0.82;;;;;;;17.82;53.19;101136.84;7968084;28;21471;-68
2021/09/27 16:24:56;;;;;;;2.40;0.90;;;;;;;17.66;52.73;101144.53;7969743;28;20542;-67
2021/09/27 16:28:48;;;;;;;1.65;0.85;;;;;;;17.55;52.79;101139.38;7969335;28;20039;-67
2021/09/27 16:32:38;;;;;;;2.40;0.85;;;;;;;17.41;52.98;101124.69;7967355;28;20049;-67
2021/09/27 16:36:29;;;;;;;1.20;0.60;;;;;;;17.40;52.80;101157.53;7973918;28;20037;-72
2021/09/27 16:40:20;;;;;;;1.73;0.80;;;;;;;17.30;52.91;101156.69;7969883;28;20079;-70
2021/09/27 16:44:11;;;;;;;1.73;0.90;;;;;;;17.28;52.70;101171.91;7982322;28;20030;-69
2021/09/27 16:48:03;;;;;;;2.38;0.75;;;;;;;17.22;52.81;101183.09;7975218;28;20036;-69
2021/09/27 16:51:55;;;;;;;1.65;0.95;;;;;;;17.17;53.12;101190.63;7979865;28;20043;-69
2021/09/27 16:55:45;;;;;;;6.45;1.55;;;;;;;17.12;53.08;101219.38;7967245;28;20040;-66
2021/09/27 16:59:36;;;;;;;1.90;1.30;;;;;;;17.07;52.99;101226.94;7970312;28;20034;-66
2021/09/27 17:03:27;;;;;;;1.63;0.80;;;;;;;17.04;53.13;101248.41;7969613;28;20041;-66
2021/09/27 17:07:20;;;;;;;3.50;0.82;;;;;;;16.99;53.11;101248.81;7969855;28;20036;-67
2021/09/27 17:11:11;;;;;;;1.23;0.80;;;;;;;16.90;53.29;101246.09;7970792;28;20029;-69
2021/09/27 17:19:12;;;;;;;0.63;0.63;;;;;;;16.88;53.27;101250.69;7971249;28;20036;-68
2021/09/27 17:23:12;;;;;;;1.38;0.80;;;;;;;16.86;53.38;101253.50;7962284;28;20033;-66
2021/09/27 17:27:06;;;;;;;1.55;0.70;;;;;;;16.84;53.51;101259.88;7971580;28;20052;-67
2021/09/27 17:31:01;;;;;;;2.05;1.00;;;;;;;16.80;53.56;101255.81;7973415;28;20042;-67
2021/09/27 17:34:52;;;;;;;2.30;0.70;;;;;;;16.73;53.46;101266.13;7964599;28;20123;-66
2021/09/27 17:38:43;;;;;;;2.58;0.90;;;;;;;16.75;53.51;101268.63;7973471;28;20533;-67
2021/09/27 17:42:34;;;;;;;3.70;1.00;;;;;;;16.72;53.57;101275.06;7967170;28;20059;-68
2021/09/27 17:46:25;;;;;;;3.17;1.23;;;;;;;16.65;53.57;101271.25;7967600;28;20044;-70
2021/09/27 17:50:16;;;;;;;3.53;0.90;;;;;;;16.66;53.56;101267.59;7964431;28;20029;-69
2021/09/27 17:54:07;;;;;;;0.90;0.80;;;;;;;16.61;53.65;101283.94;7964575;28;20166;-69
2021/09/27 17:57:57;;;;;;;3.03;1.27;;;;;;;16.59;53.60;101292.97;7968651;28;20405;-71
2021/09/27 18:01:48;;;;;;;2.42;0.98;;;;;;;16.56;53.74;101293.25;7963210;28;20040;-70
2021/09/27 18:05:39;;;;;;;5.00;1.40;;;;;;;16.52;53.71;101308.59;7970086;28;20044;-70
2021/09/27 18:09:33;;;;;;;2.47;1.10;;;;;;;16.48;54.05;101304.50;7970669;28;20041;-71
2021/09/27 18:13:26;;;;;;;1.58;0.93;;;;;;;16.41;53.95;101294.53;7972570;28;20086;-71
2021/09/27 18:17:18;;;;;;;1.92;0.93;;;;;;;16.42;53.95;101309.47;7965423;28;20049;-71
2021/09/27 18:21:11;;;;;;;1.63;0.90;;;;;;;16.38;53.84;101338.03;7961291;28;20029;-68
2021/09/27 18:25:02;;;;;;;1.70;1.00;;;;;;;16.26;53.90;101325.81;7968244;28;20426;-73
2021/09/27 18:28:53;;;;;;;1.83;0.85;;;;;;;16.29;54.03;101337.97;7976150;28;20048;-74
2021/09/27 18:32:44;;;;;;;2.25;0.95;;;;;;;16.22;54.00;101360.66;7966879;28;20191;-73